Terminal Aerodrome Forecast
Issued by NWS

Home | Current Version | Previous Version | Text Only | Print | Product List | Glossary On
Versions: 1 2 3 4 5 6 7 8 9 10 11 12 13 14 15 16 17 18 19 20 21 22 23 24 25 26 27
000
FTUS45 KBYZ 281734
TAFLVM
TAF
KLVM 281734Z 2818/2918 26013G24KT 6SM -SN SCT025 BKN050 OVC100
     FM282000 08014G23KT 6SM -SN BKN025 OVC050
     FM290000 08011KT 2SM -SN BR SCT005 OVC010
     FM290600 08014G23KT 5SM -SN BR SCT005 OVC010
     FM291400 08014G23KT 6SM -SN BLSN SCT025 OVC050=

USA.gov is the U.S. government's official web portal to all federal, state and local government web resources and services.